sensor_id;sensor_type;location;lat;lon;timestamp;P1;durP1;ratioP1;P2;durP2;ratioP2
27746;SDS011;15138;51.012;4.692;2023-03-01T00:01:32;10.18;;;6.60;;
27746;SDS011;15138;51.012;4.692;2023-03-01T00:04:02;10.63;;;6.80;;
27746;SDS011;15138;51.012;4.692;2023-03-01T00:06:30;10.25;;;6.57;;
27746;SDS011;15138;51.012;4.692;2023-03-01T00:08:59;9.00;;;5.97;;
27746;SDS011;15138;51.012;4.692;2023-03-01T00:11:28;9.55;;;6.47;;
27746;SDS011;15138;51.012;4.692;2023-03-01T00:13:59;10.45;;;7.10;;
27746;SDS011;15138;51.012;4.692;2023-03-01T00:16:29;12.95;;;7.22;;
27746;SDS011;15138;51.012;4.692;2023-03-01T00:19:00;11.70;;;6.75;;
27746;SDS011;15138;51.012;4.692;2023-03-01T00:21:30;9.95;;;6.57;;
27746;SDS011;15138;51.012;4.692;2023-03-01T00:24:00;12.43;;;7.22;;
27746;SDS011;15138;51.012;4.692;2023-03-01T00:26:28;11.05;;;6.90;;
27746;SDS011;15138;51.012;4.692;2023-03-01T00:28:57;11.38;;;6.30;;
27746;SDS011;15138;51.012;4.692;2023-03-01T00:31:27;7.90;;;5.80;;
27746;SDS011;15138;51.012;4.692;2023-03-01T00:33:57;11.57;;;6.82;;
27746;SDS011;15138;51.012;4.692;2023-03-01T00:36:28;10.20;;;6.72;;
27746;SDS011;15138;51.012;4.692;2023-03-01T00:39:00;8.10;;;5.50;;
27746;SDS011;15138;51.012;4.692;2023-03-01T00:41:29;12.80;;;6.60;;
27746;SDS011;15138;51.012;4.692;2023-03-01T00:43:57;9.80;;;6.72;;
27746;SDS011;15138;51.012;4.692;2023-03-01T00:46:26;10.10;;;6.32;;
27746;SDS011;15138;51.012;4.692;2023-03-01T00:48:57;9.70;;;6.10;;
27746;SDS011;15138;51.012;4.692;2023-03-01T00:51:28;9.98;;;6.78;;
27746;SDS011;15138;51.012;4.692;2023-03-01T00:53:58;9.73;;;6.32;;
27746;SDS011;15138;51.012;4.692;2023-03-01T00:56:28;10.90;;;6.60;;
27746;SDS011;15138;51.012;4.692;2023-03-01T00:58:58;9.73;;;6.07;;
27746;SDS011;15138;51.012;4.692;2023-03-01T01:01:27;11.88;;;7.20;;
27746;SDS011;15138;51.012;4.692;2023-03-01T01:03:57;13.35;;;7.90;;
27746;SDS011;15138;51.012;4.692;2023-03-01T01:06:28;8.05;;;5.97;;
27746;SDS011;15138;51.012;4.692;2023-03-01T01:09:00;8.57;;;6.10;;
27746;SDS011;15138;51.012;4.692;2023-03-01T01:11:30;8.45;;;6.00;;
27746;SDS011;15138;51.012;4.692;2023-03-01T01:13:59;9.90;;;6.00;;
27746;SDS011;15138;51.012;4.692;2023-03-01T01:16:27;10.90;;;6.53;;
27746;SDS011;15138;51.012;4.692;2023-03-01T01:18:57;9.70;;;6.30;;
27746;SDS011;15138;51.012;4.692;2023-03-01T01:21:25;10.57;;;6.70;;
27746;SDS011;15138;51.012;4.692;2023-03-01T01:23:56;10.55;;;6.72;;
27746;SDS011;15138;51.012;4.692;2023-03-01T01:26:25;13.70;;;6.68;;
27746;SDS011;15138;51.012;4.692;2023-03-01T01:28:55;8.85;;;5.65;;
27746;SDS011;15138;51.012;4.692;2023-03-01T01:31:25;9.43;;;6.30;;
27746;SDS011;15138;51.012;4.692;2023-03-01T01:33:54;11.85;;;5.47;;
27746;SDS011;15138;51.012;4.692;2023-03-01T01:36:23;11.60;;;6.50;;
27746;SDS011;15138;51.012;4.692;2023-03-01T01:38:51;11.68;;;7.53;;
27746;SDS011;15138;51.012;4.692;2023-03-01T01:41:21;10.52;;;6.60;;
27746;SDS011;15138;51.012;4.692;2023-03-01T01:46:41;8.32;;;5.40;;
27746;SDS011;15138;51.012;4.692;2023-03-01T01:49:16;8.50;;;5.13;;
27746;SDS011;15138;51.012;4.692;2023-03-01T01:51:51;7.30;;;5.57;;
27746;SDS011;15138;51.012;4.692;2023-03-01T01:54:26;10.35;;;6.72;;
27746;SDS011;15138;51.012;4.692;2023-03-01T01:57:00;9.85;;;5.47;;
27746;SDS011;15138;51.012;4.692;2023-03-01T01:59:34;9.35;;;5.45;;
27746;SDS011;15138;51.012;4.692;2023-03-01T02:02:03;8.95;;;5.85;;
27746;SDS011;15138;51.012;4.692;2023-03-01T02:04:32;8.95;;;4.97;;
27746;SDS011;15138;51.012;4.692;2023-03-01T02:07:01;7.43;;;5.28;;
27746;SDS011;15138;51.012;4.692;2023-03-01T02:09:34;9.02;;;5.50;;
27746;SDS011;15138;51.012;4.692;2023-03-01T02:12:05;9.60;;;5.30;;
27746;SDS011;15138;51.012;4.692;2023-03-01T02:14:33;10.27;;;6.90;;
27746;SDS011;15138;51.012;4.692;2023-03-01T02:17:02;12.10;;;6.50;;
27746;SDS011;15138;51.012;4.692;2023-03-01T02:19:33;7.45;;;5.38;;
27746;SDS011;15138;51.012;4.692;2023-03-01T02:22:12;9.63;;;5.45;;
27746;SDS011;15138;51.012;4.692;2023-03-01T02:24:52;9.90;;;5.20;;
27746;SDS011;15138;51.012;4.692;2023-03-01T02:27:43;8.88;;;5.45;;
27746;SDS011;15138;51.012;4.692;2023-03-01T02:30:21;6.80;;;5.22;;
27746;SDS011;15138;51.012;4.692;2023-03-01T02:32:52;7.65;;;5.22;;
27746;SDS011;15138;51.012;4.692;2023-03-01T02:35:29;8.43;;;5.25;;
27746;SDS011;15138;51.012;4.692;2023-03-01T02:38:00;7.30;;;5.35;;
27746;SDS011;15138;51.012;4.692;2023-03-01T02:40:30;7.65;;;5.40;;
27746;SDS011;15138;51.012;4.692;2023-03-01T02:43:01;9.32;;;5.50;;
27746;SDS011;15138;51.012;4.692;2023-03-01T02:45:37;9.75;;;5.65;;
27746;SDS011;15138;51.012;4.692;2023-03-01T02:48:10;9.05;;;5.78;;
27746;SDS011;15138;51.012;4.692;2023-03-01T02:50:45;7.15;;;5.10;;
27746;SDS011;15138;51.012;4.692;2023-03-01T02:53:34;7.82;;;5.45;;
27746;SDS011;15138;51.012;4.692;2023-03-01T02:56:07;8.45;;;5.97;;
27746;SDS011;15138;51.012;4.692;2023-03-01T02:58:39;10.85;;;5.43;;
27746;SDS011;15138;51.012;4.692;2023-03-01T03:01:13;10.75;;;6.10;;
27746;SDS011;15138;51.012;4.692;2023-03-01T03:03:42;6.68;;;4.82;;
27746;SDS011;15138;51.012;4.692;2023-03-01T03:06:11;7.40;;;5.03;;
27746;SDS011;15138;51.012;4.692;2023-03-01T03:08:40;8.65;;;5.47;;
27746;SDS011;15138;51.012;4.692;2023-03-01T03:11:08;9.82;;;6.13;;
27746;SDS011;15138;51.012;4.692;2023-03-01T03:13:36;9.68;;;5.90;;
27746;SDS011;15138;51.012;4.692;2023-03-01T03:16:15;8.05;;;5.03;;
27746;SDS011;15138;51.012;4.692;2023-03-01T03:18:44;7.47;;;5.38;;
27746;SDS011;15138;51.012;4.692;2023-03-01T03:21:12;7.50;;;5.15;;
27746;SDS011;15138;51.012;4.692;2023-03-01T03:23:41;7.35;;;5.20;;
27746;SDS011;15138;51.012;4.692;2023-03-01T03:26:09;8.40;;;4.97;;
27746;SDS011;15138;51.012;4.692;2023-03-01T03:28:39;7.35;;;5.32;;
27746;SDS011;15138;51.012;4.692;2023-03-01T03:31:08;10.30;;;5.53;;
27746;SDS011;15138;51.012;4.692;2023-03-01T03:33:38;10.25;;;5.22;;
27746;SDS011;15138;51.012;4.692;2023-03-01T03:36:06;7.20;;;4.85;;
27746;SDS011;15138;51.012;4.692;2023-03-01T03:38:39;7.13;;;4.85;;
27746;SDS011;15138;51.012;4.692;2023-03-01T03:41:08;10.23;;;6.10;;
27746;SDS011;15138;51.012;4.692;2023-03-01T03:43:38;7.85;;;4.75;;
27746;SDS011;15138;51.012;4.692;2023-03-01T03:46:09;8.90;;;5.90;;
27746;SDS011;15138;51.012;4.692;2023-03-01T03:48:41;6.15;;;4.60;;
27746;SDS011;15138;51.012;4.692;2023-03-01T03:51:11;8.38;;;4.78;;
27746;SDS011;15138;51.012;4.692;2023-03-01T03:53:40;10.32;;;6.85;;
27746;SDS011;15138;51.012;4.692;2023-03-01T03:56:08;11.27;;;5.95;;
27746;SDS011;15138;51.012;4.692;2023-03-01T03:58:37;9.63;;;5.00;;
27746;SDS011;15138;51.012;4.692;2023-03-01T04:01:06;8.98;;;6.38;;
27746;SDS011;15138;51.012;4.692;2023-03-01T04:03:34;8.27;;;5.43;;
27746;SDS011;15138;51.012;4.692;2023-03-01T04:06:04;9.02;;;4.93;;
27746;SDS011;15138;51.012;4.692;2023-03-01T04:08:33;9.23;;;5.88;;
27746;SDS011;15138;51.012;4.692;2023-03-01T04:11:02;10.40;;;6.32;;
27746;SDS011;15138;51.012;4.692;2023-03-01T04:13:46;8.43;;;5.80;;
27746;SDS011;15138;51.012;4.692;2023-03-01T04:16:14;9.82;;;6.32;;
27746;SDS011;15138;51.012;4.692;2023-03-01T04:18:44;9.15;;;5.82;;
27746;SDS011;15138;51.012;4.692;2023-03-01T04:21:14;10.10;;;7.03;;
27746;SDS011;15138;51.012;4.692;2023-03-01T04:23:42;7.53;;;4.65;;
27746;SDS011;15138;51.012;4.692;2023-03-01T04:26:10;8.35;;;5.30;;
27746;SDS011;15138;51.012;4.692;2023-03-01T04:28:40;11.18;;;5.97;;
27746;SDS011;15138;51.012;4.692;2023-03-01T04:31:13;8.23;;;5.13;;
27746;SDS011;15138;51.012;4.692;2023-03-01T04:33:44;7.43;;;3.97;;
27746;SDS011;15138;51.012;4.692;2023-03-01T04:36:16;8.38;;;5.93;;
27746;SDS011;15138;51.012;4.692;2023-03-01T04:38:45;10.07;;;5.70;;
27746;SDS011;15138;51.012;4.692;2023-03-01T04:41:15;7.70;;;5.25;;
27746;SDS011;15138;51.012;4.692;2023-03-01T04:43:45;6.32;;;4.60;;
27746;SDS011;15138;51.012;4.692;2023-03-01T04:46:15;8.05;;;4.40;;
27746;SDS011;15138;51.012;4.692;2023-03-01T04:48:45;8.63;;;5.95;;
27746;SDS011;15138;51.012;4.692;2023-03-01T04:51:16;8.13;;;4.90;;
27746;SDS011;15138;51.012;4.692;2023-03-01T04:53:44;8.70;;;5.90;;
27746;SDS011;15138;51.012;4.692;2023-03-01T04:56:13;7.60;;;4.95;;
27746;SDS011;15138;51.012;4.692;2023-03-01T04:58:42;7.50;;;5.28;;
27746;SDS011;15138;51.012;4.692;2023-03-01T05:01:11;6.18;;;4.22;;
27746;SDS011;15138;51.012;4.692;2023-03-01T05:03:42;8.93;;;5.20;;
27746;SDS011;15138;51.012;4.692;2023-03-01T05:06:11;6.93;;;4.68;;
27746;SDS011;15138;51.012;4.692;2023-03-01T05:08:42;12.80;;;6.13;;
27746;SDS011;15138;51.012;4.692;2023-03-01T05:11:11;6.47;;;4.57;;
27746;SDS011;15138;51.012;4.692;2023-03-01T05:13:39;9.82;;;4.60;;
27746;SDS011;15138;51.012;4.692;2023-03-01T05:16:08;8.63;;;5.18;;
27746;SDS011;15138;51.012;4.692;2023-03-01T05:18:39;8.48;;;5.10;;
27746;SDS011;15138;51.012;4.692;2023-03-01T05:21:08;6.47;;;4.72;;
27746;SDS011;15138;51.012;4.692;2023-03-01T05:23:37;8.88;;;5.53;;
27746;SDS011;15138;51.012;4.692;2023-03-01T05:26:07;7.38;;;5.00;;
27746;SDS011;15138;51.012;4.692;2023-03-01T05:28:52;7.57;;;4.90;;
27746;SDS011;15138;51.012;4.692;2023-03-01T05:31:25;10.70;;;5.57;;
27746;SDS011;15138;51.012;4.692;2023-03-01T05:33:54;9.93;;;4.90;;
27746;SDS011;15138;51.012;4.692;2023-03-01T05:36:22;6.78;;;4.82;;
27746;SDS011;15138;51.012;4.692;2023-03-01T05:38:51;11.45;;;5.65;;
27746;SDS011;15138;51.012;4.692;2023-03-01T05:41:20;12.82;;;6.10;;
27746;SDS011;15138;51.012;4.692;2023-03-01T05:43:49;7.00;;;5.20;;
27746;SDS011;15138;51.012;4.692;2023-03-01T05:46:17;11.13;;;6.03;;
27746;SDS011;15138;51.012;4.692;2023-03-01T05:48:45;11.85;;;5.63;;
27746;SDS011;15138;51.012;4.692;2023-03-01T05:51:14;10.27;;;6.68;;
27746;SDS011;15138;51.012;4.692;2023-03-01T05:53:44;11.40;;;5.43;;
27746;SDS011;15138;51.012;4.692;2023-03-01T05:56:12;9.10;;;5.45;;
27746;SDS011;15138;51.012;4.692;2023-03-01T05:58:42;8.60;;;5.22;;
27746;SDS011;15138;51.012;4.692;2023-03-01T06:01:11;10.27;;;5.55;;
27746;SDS011;15138;51.012;4.692;2023-03-01T06:03:40;11.75;;;5.78;;
27746;SDS011;15138;51.012;4.692;2023-03-01T06:06:08;9.68;;;6.07;;
27746;SDS011;15138;51.012;4.692;2023-03-01T06:08:36;9.55;;;4.60;;
27746;SDS011;15138;51.012;4.692;2023-03-01T06:11:05;10.30;;;5.75;;
27746;SDS011;15138;51.012;4.692;2023-03-01T06:13:34;9.10;;;5.30;;
27746;SDS011;15138;51.012;4.692;2023-03-01T06:16:05;9.02;;;5.28;;
27746;SDS011;15138;51.012;4.692;2023-03-01T06:18:34;9.93;;;5.78;;
27746;SDS011;15138;51.012;4.692;2023-03-01T06:21:03;8.57;;;5.22;;
27746;SDS011;15138;51.012;4.692;2023-03-01T06:23:32;8.90;;;5.18;;
27746;SDS011;15138;51.012;4.692;2023-03-01T06:26:00;10.68;;;5.13;;
27746;SDS011;15138;51.012;4.692;2023-03-01T06:28:32;6.95;;;4.53;;
27746;SDS011;15138;51.012;4.692;2023-03-01T06:31:00;8.38;;;4.90;;
27746;SDS011;15138;51.012;4.692;2023-03-01T06:33:30;7.43;;;5.00;;
27746;SDS011;15138;51.012;4.692;2023-03-01T06:35:58;10.18;;;4.70;;
27746;SDS011;15138;51.012;4.692;2023-03-01T06:38:27;8.90;;;5.00;;
27746;SDS011;15138;51.012;4.692;2023-03-01T06:40:55;10.15;;;5.90;;
27746;SDS011;15138;51.012;4.692;2023-03-01T06:43:23;9.23;;;5.00;;
27746;SDS011;15138;51.012;4.692;2023-03-01T06:45:52;10.30;;;5.57;;
27746;SDS011;15138;51.012;4.692;2023-03-01T06:48:20;8.18;;;5.03;;
27746;SDS011;15138;51.012;4.692;2023-03-01T06:50:50;8.52;;;5.70;;
27746;SDS011;15138;51.012;4.692;2023-03-01T06:53:19;10.63;;;6.05;;
27746;SDS011;15138;51.012;4.692;2023-03-01T06:55:47;12.18;;;6.97;;
27746;SDS011;15138;51.012;4.692;2023-03-01T06:58:20;9.85;;;6.88;;
27746;SDS011;15138;51.012;4.692;2023-03-01T07:00:49;9.52;;;6.05;;
27746;SDS011;15138;51.012;4.692;2023-03-01T07:03:17;8.60;;;5.43;;
27746;SDS011;15138;51.012;4.692;2023-03-01T07:05:48;12.02;;;6.88;;
27746;SDS011;15138;51.012;4.692;2023-03-01T07:08:19;16.17;;;7.18;;
27746;SDS011;15138;51.012;4.692;2023-03-01T07:10:48;13.73;;;8.15;;
27746;SDS011;15138;51.012;4.692;2023-03-01T07:13:21;11.98;;;7.82;;
27746;SDS011;15138;51.012;4.692;2023-03-01T07:15:50;13.77;;;8.45;;
27746;SDS011;15138;51.012;4.692;2023-03-01T07:18:18;12.10;;;7.63;;
27746;SDS011;15138;51.012;4.692;2023-03-01T07:20:47;13.48;;;7.53;;
27746;SDS011;15138;51.012;4.692;2023-03-01T07:23:15;18.02;;;8.95;;
27746;SDS011;15138;51.012;4.692;2023-03-01T07:25:45;16.75;;;8.52;;
27746;SDS011;15138;51.012;4.692;2023-03-01T07:28:19;14.80;;;7.63;;
27746;SDS011;15138;51.012;4.692;2023-03-01T07:30:48;14.55;;;7.95;;
27746;SDS011;15138;51.012;4.692;2023-03-01T07:33:16;14.50;;;8.23;;
27746;SDS011;15138;51.012;4.692;2023-03-01T07:35:45;14.93;;;6.97;;
27746;SDS011;15138;51.012;4.692;2023-03-01T07:38:13;14.60;;;8.00;;
27746;SDS011;15138;51.012;4.692;2023-03-01T07:40:41;13.10;;;7.72;;
27746;SDS011;15138;51.012;4.692;2023-03-01T07:43:12;10.85;;;6.72;;
27746;SDS011;15138;51.012;4.692;2023-03-01T07:45:40;13.45;;;8.43;;
27746;SDS011;15138;51.012;4.692;2023-03-01T07:48:08;16.27;;;9.02;;
27746;SDS011;15138;51.012;4.692;2023-03-01T07:50:36;15.27;;;9.73;;
27746;SDS011;15138;51.012;4.692;2023-03-01T07:53:05;13.73;;;8.38;;
27746;SDS011;15138;51.012;4.692;2023-03-01T07:55:33;15.40;;;8.77;;
27746;SDS011;15138;51.012;4.692;2023-03-01T07:58:02;17.38;;;8.95;;
27746;SDS011;15138;51.012;4.692;2023-03-01T08:00:32;16.88;;;8.55;;
27746;SDS011;15138;51.012;4.692;2023-03-01T08:03:00;15.45;;;8.90;;
27746;SDS011;15138;51.012;4.692;2023-03-01T08:05:28;17.55;;;9.25;;
27746;SDS011;15138;51.012;4.692;2023-03-01T08:07:57;14.10;;;9.60;;
27746;SDS011;15138;51.012;4.692;2023-03-01T08:10:25;15.13;;;9.13;;
27746;SDS011;15138;51.012;4.692;2023-03-01T08:12:53;16.42;;;9.48;;
27746;SDS011;15138;51.012;4.692;2023-03-01T08:15:22;15.93;;;7.75;;
27746;SDS011;15138;51.012;4.692;2023-03-01T08:17:51;13.57;;;7.22;;
27746;SDS011;15138;51.012;4.692;2023-03-01T08:20:20;13.32;;;8.95;;
27746;SDS011;15138;51.012;4.692;2023-03-01T08:22:48;15.43;;;9.18;;
27746;SDS011;15138;51.012;4.692;2023-03-01T08:25:17;17.55;;;8.90;;
27746;SDS011;15138;51.012;4.692;2023-03-01T08:27:45;13.73;;;7.18;;
27746;SDS011;15138;51.012;4.692;2023-03-01T08:30:14;15.55;;;8.60;;
27746;SDS011;15138;51.012;4.692;2023-03-01T08:32:42;15.73;;;9.40;;
27746;SDS011;15138;51.012;4.692;2023-03-01T08:35:12;13.43;;;8.15;;
27746;SDS011;15138;51.012;4.692;2023-03-01T08:37:40;15.00;;;9.65;;
27746;SDS011;15138;51.012;4.692;2023-03-01T08:40:09;15.30;;;8.88;;
27746;SDS011;15138;51.012;4.692;2023-03-01T08:42:40;14.23;;;8.57;;
27746;SDS011;15138;51.012;4.692;2023-03-01T08:45:09;20.60;;;9.25;;
27746;SDS011;15138;51.012;4.692;2023-03-01T08:47:38;13.43;;;8.75;;
27746;SDS011;15138;51.012;4.692;2023-03-01T08:50:07;13.63;;;8.88;;
27746;SDS011;15138;51.012;4.692;2023-03-01T08:52:38;18.55;;;8.77;;
27746;SDS011;15138;51.012;4.692;2023-03-01T08:55:07;12.30;;;8.05;;
27746;SDS011;15138;51.012;4.692;2023-03-01T08:57:36;13.20;;;7.15;;
27746;SDS011;15138;51.012;4.692;2023-03-01T09:00:05;14.77;;;8.20;;
27746;SDS011;15138;51.012;4.692;2023-03-01T09:02:35;16.25;;;8.50;;
27746;SDS011;15138;51.012;4.692;2023-03-01T09:05:05;13.45;;;8.38;;
27746;SDS011;15138;51.012;4.692;2023-03-01T09:07:33;13.60;;;7.47;;
27746;SDS011;15138;51.012;4.692;2023-03-01T09:10:04;12.93;;;7.20;;
27746;SDS011;15138;51.012;4.692;2023-03-01T09:12:32;13.70;;;7.65;;
27746;SDS011;15138;51.012;4.692;2023-03-01T09:15:01;12.38;;;7.72;;
27746;SDS011;15138;51.012;4.692;2023-03-01T09:17:30;15.48;;;9.68;;
27746;SDS011;15138;51.012;4.692;2023-03-01T09:19:58;16.20;;;8.10;;
27746;SDS011;15138;51.012;4.692;2023-03-01T09:22:27;13.25;;;8.02;;
27746;SDS011;15138;51.012;4.692;2023-03-01T09:24:55;12.00;;;7.43;;
27746;SDS011;15138;51.012;4.692;2023-03-01T09:27:26;13.60;;;8.13;;
27746;SDS011;15138;51.012;4.692;2023-03-01T09:29:55;14.52;;;7.88;;
27746;SDS011;15138;51.012;4.692;2023-03-01T09:32:23;11.73;;;7.72;;
27746;SDS011;15138;51.012;4.692;2023-03-01T09:34:52;12.65;;;8.27;;
27746;SDS011;15138;51.012;4.692;2023-03-01T09:37:31;11.73;;;7.53;;
27746;SDS011;15138;51.012;4.692;2023-03-01T09:40:00;17.55;;;7.90;;
27746;SDS011;15138;51.012;4.692;2023-03-01T09:42:31;15.40;;;7.20;;
27746;SDS011;15138;51.012;4.692;2023-03-01T09:45:02;13.38;;;7.38;;
27746;SDS011;15138;51.012;4.692;2023-03-01T09:47:33;10.70;;;5.65;;
27746;SDS011;15138;51.012;4.692;2023-03-01T09:50:05;11.75;;;6.70;;
27746;SDS011;15138;51.012;4.692;2023-03-01T09:52:40;11.13;;;6.97;;
27746;SDS011;15138;51.012;4.692;2023-03-01T09:55:11;12.38;;;7.38;;
27746;SDS011;15138;51.012;4.692;2023-03-01T09:57:45;12.60;;;7.13;;
27746;SDS011;15138;51.012;4.692;2023-03-01T10:00:18;9.88;;;5.97;;
27746;SDS011;15138;51.012;4.692;2023-03-01T10:02:57;9.10;;;5.57;;
27746;SDS011;15138;51.012;4.692;2023-03-01T10:05:37;11.20;;;6.72;;
27746;SDS011;15138;51.012;4.692;2023-03-01T10:08:18;12.38;;;7.60;;
27746;SDS011;15138;51.012;4.692;2023-03-01T10:10:55;11.57;;;7.38;;
27746;SDS011;15138;51.012;4.692;2023-03-01T10:13:27;12.55;;;6.43;;
27746;SDS011;15138;51.012;4.692;2023-03-01T10:16:01;12.50;;;6.30;;
27746;SDS011;15138;51.012;4.692;2023-03-01T10:18:36;11.52;;;7.30;;
27746;SDS011;15138;51.012;4.692;2023-03-01T10:21:12;14.23;;;8.07;;
27746;SDS011;15138;51.012;4.692;2023-03-01T10:23:45;11.38;;;8.15;;
27746;SDS011;15138;51.012;4.692;2023-03-01T10:26:20;12.00;;;5.25;;
27746;SDS011;15138;51.012;4.692;2023-03-01T10:29:03;18.05;;;7.18;;
27746;SDS011;15138;51.012;4.692;2023-03-01T10:31:38;12.05;;;7.28;;
27746;SDS011;15138;51.012;4.692;2023-03-01T10:34:13;11.23;;;5.60;;
27746;SDS011;15138;51.012;4.692;2023-03-01T10:36:44;11.02;;;6.18;;
27746;SDS011;15138;51.012;4.692;2023-03-01T10:39:16;10.93;;;6.55;;
27746;SDS011;15138;51.012;4.692;2023-03-01T10:41:54;17.42;;;7.22;;
27746;SDS011;15138;51.012;4.692;2023-03-01T10:44:40;11.25;;;6.78;;
27746;SDS011;15138;51.012;4.692;2023-03-01T10:49:57;11.98;;;7.38;;
27746;SDS011;15138;51.012;4.692;2023-03-01T10:52:29;12.73;;;7.32;;
27746;SDS011;15138;51.012;4.692;2023-03-01T10:55:01;13.10;;;7.25;;
27746;SDS011;15138;51.012;4.692;2023-03-01T10:57:36;12.27;;;6.90;;
27746;SDS011;15138;51.012;4.692;2023-03-01T11:00:18;13.38;;;6.05;;
27746;SDS011;15138;51.012;4.692;2023-03-01T11:02:51;10.43;;;6.68;;
27746;SDS011;15138;51.012;4.692;2023-03-01T11:11:20;9.38;;;5.63;;
27746;SDS011;15138;51.012;4.692;2023-03-01T11:13:58;11.55;;;6.72;;
27746;SDS011;15138;51.012;4.692;2023-03-01T11:16:37;14.40;;;5.63;;
27746;SDS011;15138;51.012;4.692;2023-03-01T11:19:14;12.05;;;5.70;;
27746;SDS011;15138;51.012;4.692;2023-03-01T11:21:55;11.80;;;7.53;;
27746;SDS011;15138;51.012;4.692;2023-03-01T11:24:30;10.38;;;6.28;;
27746;SDS011;15138;51.012;4.692;2023-03-01T11:27:06;8.02;;;3.38;;
27746;SDS011;15138;51.012;4.692;2023-03-01T11:29:45;14.25;;;7.30;;
27746;SDS011;15138;51.012;4.692;2023-03-01T11:32:18;11.43;;;7.07;;
27746;SDS011;15138;51.012;4.692;2023-03-01T11:34:51;10.02;;;6.63;;
27746;SDS011;15138;51.012;4.692;2023-03-01T11:37:28;11.10;;;5.82;;
27746;SDS011;15138;51.012;4.692;2023-03-01T11:40:12;12.00;;;6.40;;
27746;SDS011;15138;51.012;4.692;2023-03-01T11:42:48;12.02;;;4.97;;
27746;SDS011;15138;51.012;4.692;2023-03-01T11:45:24;10.30;;;6.50;;
27746;SDS011;15138;51.012;4.692;2023-03-01T11:48:03;13.63;;;7.35;;
27746;SDS011;15138;51.012;4.692;2023-03-01T11:50:41;16.20;;;7.53;;
27746;SDS011;15138;51.012;4.692;2023-03-01T11:53:18;11.98;;;7.18;;
27746;SDS011;15138;51.012;4.692;2023-03-01T11:56:12;12.73;;;6.55;;
27746;SDS011;15138;51.012;4.692;2023-03-01T12:01:52;11.90;;;7.15;;
27746;SDS011;15138;51.012;4.692;2023-03-01T12:07:57;13.90;;;7.85;;
27746;SDS011;15138;51.012;4.692;2023-03-01T12:10:35;10.27;;;7.25;;
27746;SDS011;15138;51.012;4.692;2023-03-01T12:13:17;17.05;;;7.45;;
27746;SDS011;15138;51.012;4.692;2023-03-01T12:16:10;12.77;;;7.18;;
27746;SDS011;15138;51.012;4.692;2023-03-01T12:19:13;11.88;;;6.95;;
27746;SDS011;15138;51.012;4.692;2023-03-01T12:21:55;10.93;;;6.00;;
27746;SDS011;15138;51.012;4.692;2023-03-01T12:24:55;10.98;;;6.47;;
27746;SDS011;15138;51.012;4.692;2023-03-01T12:27:43;10.85;;;6.63;;
27746;SDS011;15138;51.012;4.692;2023-03-01T12:30:37;7.90;;;4.07;;
27746;SDS011;15138;51.012;4.692;2023-03-01T12:33:22;11.35;;;6.05;;
27746;SDS011;15138;51.012;4.692;2023-03-01T12:38:56;12.45;;;5.85;;
27746;SDS011;15138;51.012;4.692;2023-03-01T12:41:47;9.52;;;5.75;;
27746;SDS011;15138;51.012;4.692;2023-03-01T12:44:23;12.90;;;7.53;;
27746;SDS011;15138;51.012;4.692;2023-03-01T12:47:13;10.02;;;6.38;;
27746;SDS011;15138;51.012;4.692;2023-03-01T12:49:51;4.75;;;3.25;;
27746;SDS011;15138;51.012;4.692;2023-03-01T12:52:35;11.02;;;6.78;;
27746;SDS011;15138;51.012;4.692;2023-03-01T12:55:08;11.10;;;7.32;;
27746;SDS011;15138;51.012;4.692;2023-03-01T12:57:48;12.30;;;6.80;;
27746;SDS011;15138;51.012;4.692;2023-03-01T13:00:26;10.75;;;6.45;;
27746;SDS011;15138;51.012;4.692;2023-03-01T13:03:00;10.85;;;7.07;;
27746;SDS011;15138;51.012;4.692;2023-03-01T13:05:39;12.95;;;8.05;;
27746;SDS011;15138;51.012;4.692;2023-03-01T13:08:14;12.55;;;7.03;;
27746;SDS011;15138;51.012;4.692;2023-03-01T13:10:49;4.03;;;2.75;;
27746;SDS011;15138;51.012;4.692;2023-03-01T13:13:23;10.32;;;6.05;;
27746;SDS011;15138;51.012;4.692;2023-03-01T13:15:52;12.40;;;7.35;;
27746;SDS011;15138;51.012;4.692;2023-03-01T13:18:31;10.63;;;6.15;;
27746;SDS011;15138;51.012;4.692;2023-03-01T13:21:01;12.43;;;7.65;;
27746;SDS011;15138;51.012;4.692;2023-03-01T13:23:33;10.32;;;6.07;;
27746;SDS011;15138;51.012;4.692;2023-03-01T13:26:11;12.13;;;6.53;;
27746;SDS011;15138;51.012;4.692;2023-03-01T13:28:49;13.48;;;8.50;;
27746;SDS011;15138;51.012;4.692;2023-03-01T13:34:39;11.50;;;6.97;;
27746;SDS011;15138;51.012;4.692;2023-03-01T13:37:23;10.27;;;6.47;;
27746;SDS011;15138;51.012;4.692;2023-03-01T13:39:57;14.07;;;7.45;;
27746;SDS011;15138;51.012;4.692;2023-03-01T13:42:35;11.90;;;6.13;;
27746;SDS011;15138;51.012;4.692;2023-03-01T13:45:15;12.65;;;7.07;;
27746;SDS011;15138;51.012;4.692;2023-03-01T13:47:50;9.57;;;5.97;;
27746;SDS011;15138;51.012;4.692;2023-03-01T13:50:25;12.68;;;7.47;;
27746;SDS011;15138;51.012;4.692;2023-03-01T13:52:56;9.45;;;6.30;;
27746;SDS011;15138;51.012;4.692;2023-03-01T13:55:30;9.80;;;5.85;;
27746;SDS011;15138;51.012;4.692;2023-03-01T13:58:12;9.57;;;5.90;;
27746;SDS011;15138;51.012;4.692;2023-03-01T14:00:55;10.90;;;6.20;;
27746;SDS011;15138;51.012;4.692;2023-03-01T14:03:25;11.38;;;5.82;;
27746;SDS011;15138;51.012;4.692;2023-03-01T14:05:58;12.43;;;7.82;;
27746;SDS011;15138;51.012;4.692;2023-03-01T14:08:41;6.47;;;4.30;;
27746;SDS011;15138;51.012;4.692;2023-03-01T14:11:20;10.10;;;6.57;;
27746;SDS011;15138;51.012;4.692;2023-03-01T14:14:14;14.00;;;7.75;;
27746;SDS011;15138;51.012;4.692;2023-03-01T14:16:58;9.88;;;5.97;;
27746;SDS011;15138;51.012;4.692;2023-03-01T14:19:36;8.15;;;5.38;;
27746;SDS011;15138;51.012;4.692;2023-03-01T14:22:12;9.38;;;4.95;;
27746;SDS011;15138;51.012;4.692;2023-03-01T14:24:49;12.75;;;7.00;;
27746;SDS011;15138;51.012;4.692;2023-03-01T14:27:18;14.00;;;6.45;;
27746;SDS011;15138;51.012;4.692;2023-03-01T14:29:54;9.85;;;4.47;;
27746;SDS011;15138;51.012;4.692;2023-03-01T14:32:27;10.25;;;6.53;;
27746;SDS011;15138;51.012;4.692;2023-03-01T14:34:57;11.43;;;6.30;;
27746;SDS011;15138;51.012;4.692;2023-03-01T14:37:29;9.45;;;5.53;;
27746;SDS011;15138;51.012;4.692;2023-03-01T14:39:59;17.42;;;7.18;;
27746;SDS011;15138;51.012;4.692;2023-03-01T14:42:31;11.07;;;7.43;;
27746;SDS011;15138;51.012;4.692;2023-03-01T14:45:03;8.73;;;5.43;;
27746;SDS011;15138;51.012;4.692;2023-03-01T14:47:36;15.30;;;6.72;;
27746;SDS011;15138;51.012;4.692;2023-03-01T14:50:10;14.23;;;6.70;;
27746;SDS011;15138;51.012;4.692;2023-03-01T14:52:48;10.25;;;6.13;;
27746;SDS011;15138;51.012;4.692;2023-03-01T14:55:21;11.00;;;5.88;;
27746;SDS011;15138;51.012;4.692;2023-03-01T14:57:54;10.07;;;6.22;;
27746;SDS011;15138;51.012;4.692;2023-03-01T15:00:27;11.02;;;7.38;;
27746;SDS011;15138;51.012;4.692;2023-03-01T15:02:58;13.23;;;7.55;;
27746;SDS011;15138;51.012;4.692;2023-03-01T15:05:30;10.20;;;6.05;;
27746;SDS011;15138;51.012;4.692;2023-03-01T15:07:59;12.73;;;6.65;;
27746;SDS011;15138;51.012;4.692;2023-03-01T15:10:31;9.23;;;5.90;;
27746;SDS011;15138;51.012;4.692;2023-03-01T15:13:09;9.27;;;5.65;;
27746;SDS011;15138;51.012;4.692;2023-03-01T15:15:39;12.55;;;7.53;;
27746;SDS011;15138;51.012;4.692;2023-03-01T15:18:15;12.57;;;7.05;;
27746;SDS011;15138;51.012;4.692;2023-03-01T15:20:46;13.35;;;7.28;;
27746;SDS011;15138;51.012;4.692;2023-03-01T15:23:20;10.55;;;6.88;;
27746;SDS011;15138;51.012;4.692;2023-03-01T15:25:50;9.25;;;5.55;;
27746;SDS011;15138;51.012;4.692;2023-03-01T15:28:24;11.35;;;6.72;;
27746;SDS011;15138;51.012;4.692;2023-03-01T15:30:56;9.77;;;4.00;;
27746;SDS011;15138;51.012;4.692;2023-03-01T15:33:31;7.22;;;4.90;;
27746;SDS011;15138;51.012;4.692;2023-03-01T15:41:59;14.10;;;6.05;;